sensor_id;sensor_type;location;lat;lon;timestamp;pressure;altitude;pressure_sealevel;temperature;humidity
58070;BME280;43863;52.256;21.048;2022-08-01T00:01:49;100188.53;;;17.29;81.41
58070;BME280;43863;52.256;21.048;2022-08-01T00:04:17;100193.59;;;17.37;81.62
58070;BME280;43863;52.256;21.048;2022-08-01T00:06:48;100194.84;;;17.53;81.30
58070;BME280;43863;52.256;21.048;2022-08-01T00:09:16;100192.59;;;17.50;80.91
58070;BME280;43863;52.256;21.048;2022-08-01T00:11:50;100184.91;;;17.54;80.93
58070;BME280;43863;52.256;21.048;2022-08-01T00:14:46;100183.72;;;17.49;80.44
58070;BME280;43863;52.256;21.048;2022-08-01T00:17:16;100182.81;;;17.56;80.92
58070;BME280;43863;52.256;21.048;2022-08-01T00:19:44;100186.13;;;17.58;80.59
58070;BME280;43863;52.256;21.048;2022-08-01T00:22:12;100186.97;;;17.70;80.79
58070;BME280;43863;52.256;21.048;2022-08-01T00:24:40;100178.19;;;17.81;80.15
58070;BME280;43863;52.256;21.048;2022-08-01T00:27:08;100166.03;;;17.79;79.51
58070;BME280;43863;52.256;21.048;2022-08-01T00:29:36;100167.19;;;17.83;79.70
58070;BME280;43863;52.256;21.048;2022-08-01T00:32:26;100165.91;;;17.85;79.54
58070;BME280;43863;52.256;21.048;2022-08-01T00:34:55;100165.75;;;17.99;79.35
58070;BME280;43863;52.256;21.048;2022-08-01T00:37:24;100169.34;;;18.04;79.15
58070;BME280;43863;52.256;21.048;2022-08-01T00:39:52;100157.09;;;17.96;78.47
58070;BME280;43863;52.256;21.048;2022-08-01T00:42:20;100157.69;;;17.99;78.72
58070;BME280;43863;52.256;21.048;2022-08-01T00:44:48;100162.00;;;18.00;78.44
58070;BME280;43863;52.256;21.048;2022-08-01T00:47:16;100165.38;;;18.07;78.55
58070;BME280;43863;52.256;21.048;2022-08-01T00:49:44;100163.59;;;17.89;78.32
58070;BME280;43863;52.256;21.048;2022-08-01T00:52:12;100155.88;;;17.81;78.90
58070;BME280;43863;52.256;21.048;2022-08-01T00:54:40;100160.44;;;17.92;79.15
58070;BME280;43863;52.256;21.048;2022-08-01T00:57:08;100157.41;;;17.88;79.05
58070;BME280;43863;52.256;21.048;2022-08-01T00:59:38;100165.16;;;17.96;78.42
58070;BME280;43863;52.256;21.048;2022-08-01T01:02:33;100169.09;;;17.94;78.02
58070;BME280;43863;52.256;21.048;2022-08-01T01:05:05;100162.06;;;17.81;78.82
58070;BME280;43863;52.256;21.048;2022-08-01T01:10:32;100163.94;;;17.81;78.92
58070;BME280;43863;52.256;21.048;2022-08-01T01:13:59;100163.47;;;17.84;78.60
58070;BME280;43863;52.256;21.048;2022-08-01T01:16:17;100165.25;;;17.90;78.51
58070;BME280;43863;52.256;21.048;2022-08-01T01:18:57;100169.41;;;17.86;78.49
58070;BME280;43863;52.256;21.048;2022-08-01T01:24:27;100166.63;;;17.62;78.64
58070;BME280;43863;52.256;21.048;2022-08-01T01:30:00;100167.06;;;17.59;79.25
58070;BME280;43863;52.256;21.048;2022-08-01T01:32:36;100163.63;;;17.70;78.79
58070;BME280;43863;52.256;21.048;2022-08-01T01:35:09;100162.81;;;17.70;78.48
58070;BME280;43863;52.256;21.048;2022-08-01T01:37:45;100168.38;;;17.68;78.33
58070;BME280;43863;52.256;21.048;2022-08-01T01:40:17;100167.47;;;17.74;78.44
58070;BME280;43863;52.256;21.048;2022-08-01T01:42:49;100159.84;;;17.78;78.38
58070;BME280;43863;52.256;21.048;2022-08-01T01:45:24;100164.22;;;17.72;78.21
58070;BME280;43863;52.256;21.048;2022-08-01T01:47:54;100157.88;;;17.67;78.46
58070;BME280;43863;52.256;21.048;2022-08-01T01:50:26;100167.47;;;17.74;78.22
58070;BME280;43863;52.256;21.048;2022-08-01T01:52:54;100164.06;;;17.67;77.79
58070;BME280;43863;52.256;21.048;2022-08-01T01:55:23;100168.59;;;17.55;78.70
58070;BME280;43863;52.256;21.048;2022-08-01T01:57:54;100169.41;;;17.56;78.56
58070;BME280;43863;52.256;21.048;2022-08-01T02:00:23;100177.16;;;17.64;78.44
58070;BME280;43863;52.256;21.048;2022-08-01T02:02:53;100171.69;;;17.70;78.14
58070;BME280;43863;52.256;21.048;2022-08-01T02:05:24;100161.25;;;17.62;78.24
58070;BME280;43863;52.256;21.048;2022-08-01T02:07:55;100160.38;;;17.50;78.29
58070;BME280;43863;52.256;21.048;2022-08-01T02:10:26;100154.19;;;17.49;78.03
58070;BME280;43863;52.256;21.048;2022-08-01T02:12:57;100152.78;;;17.47;78.32
58070;BME280;43863;52.256;21.048;2022-08-01T02:15:27;100156.97;;;17.43;78.26
58070;BME280;43863;52.256;21.048;2022-08-01T02:17:57;100152.56;;;17.30;78.29
58070;BME280;43863;52.256;21.048;2022-08-01T02:20:29;100156.00;;;17.37;78.39
58070;BME280;43863;52.256;21.048;2022-08-01T02:23:11;100151.16;;;17.46;78.08
58070;BME280;43863;52.256;21.048;2022-08-01T02:25:42;100154.03;;;17.44;77.92
58070;BME280;43863;52.256;21.048;2022-08-01T02:28:40;100156.22;;;17.54;77.57
58070;BME280;43863;52.256;21.048;2022-08-01T02:31:13;100146.13;;;17.49;77.58
58070;BME280;43863;52.256;21.048;2022-08-01T02:33:53;100150.28;;;17.34;77.65
58070;BME280;43863;52.256;21.048;2022-08-01T02:36:25;100162.88;;;17.15;77.69
58070;BME280;43863;52.256;21.048;2022-08-01T02:39:03;100168.03;;;16.98;78.37
58070;BME280;43863;52.256;21.048;2022-08-01T02:41:39;100167.09;;;16.86;78.40
58070;BME280;43863;52.256;21.048;2022-08-01T02:44:16;100163.72;;;16.72;78.72
58070;BME280;43863;52.256;21.048;2022-08-01T02:47:11;100165.63;;;16.65;79.11
58070;BME280;43863;52.256;21.048;2022-08-01T02:49:42;100168.75;;;16.61;79.04
58070;BME280;43863;52.256;21.048;2022-08-01T02:52:14;100170.22;;;16.39;79.55
58070;BME280;43863;52.256;21.048;2022-08-01T02:55:10;100163.19;;;16.38;79.90
58070;BME280;43863;52.256;21.048;2022-08-01T02:57:40;100168.78;;;16.36;80.13
58070;BME280;43863;52.256;21.048;2022-08-01T03:00:23;100169.22;;;16.33;80.24
58070;BME280;43863;52.256;21.048;2022-08-01T03:02:53;100176.28;;;16.28;80.09
58070;BME280;43863;52.256;21.048;2022-08-01T03:05:24;100180.19;;;16.25;80.55
58070;BME280;43863;52.256;21.048;2022-08-01T03:07:54;100173.66;;;16.21;80.46
58070;BME280;43863;52.256;21.048;2022-08-01T03:10:30;100180.91;;;16.14;80.49
58070;BME280;43863;52.256;21.048;2022-08-01T03:13:24;100176.03;;;16.04;81.05
58070;BME280;43863;52.256;21.048;2022-08-01T03:15:54;100179.19;;;15.95;81.30
58070;BME280;43863;52.256;21.048;2022-08-01T03:18:24;100186.22;;;15.89;81.53
58070;BME280;43863;52.256;21.048;2022-08-01T03:20:54;100179.25;;;15.81;81.87
58070;BME280;43863;52.256;21.048;2022-08-01T03:23:24;100178.81;;;15.84;81.69
58070;BME280;43863;52.256;21.048;2022-08-01T03:26:30;100174.72;;;15.82;81.95
58070;BME280;43863;52.256;21.048;2022-08-01T03:29:03;100179.06;;;15.83;81.86
58070;BME280;43863;52.256;21.048;2022-08-01T03:31:48;100178.63;;;15.86;81.74
58070;BME280;43863;52.256;21.048;2022-08-01T03:34:17;100183.53;;;15.89;81.72
58070;BME280;43863;52.256;21.048;2022-08-01T03:36:48;100177.63;;;15.80;81.93
58070;BME280;43863;52.256;21.048;2022-08-01T03:39:22;100183.78;;;15.81;81.87
58070;BME280;43863;52.256;21.048;2022-08-01T03:42:19;100187.94;;;15.77;82.28
58070;BME280;43863;52.256;21.048;2022-08-01T03:44:53;100190.00;;;15.75;82.31
58070;BME280;43863;52.256;21.048;2022-08-01T03:47:32;100190.00;;;15.75;82.57
58070;BME280;43863;52.256;21.048;2022-08-01T03:50:13;100192.88;;;15.80;82.49
58070;BME280;43863;52.256;21.048;2022-08-01T03:52:45;100197.19;;;15.81;82.73
58070;BME280;43863;52.256;21.048;2022-08-01T03:55:39;100191.88;;;15.74;82.64
58070;BME280;43863;52.256;21.048;2022-08-01T03:58:09;100194.72;;;15.79;83.06
58070;BME280;43863;52.256;21.048;2022-08-01T04:00:38;100196.31;;;15.87;82.82
58070;BME280;43863;52.256;21.048;2022-08-01T04:03:08;100202.63;;;15.99;82.58
58070;BME280;43863;52.256;21.048;2022-08-01T04:05:36;100202.03;;;15.97;82.22
58070;BME280;43863;52.256;21.048;2022-08-01T04:08:04;100204.28;;;16.00;82.58
58070;BME280;43863;52.256;21.048;2022-08-01T04:10:32;100209.34;;;16.15;82.48
58070;BME280;43863;52.256;21.048;2022-08-01T04:13:00;100215.09;;;16.19;81.96
58070;BME280;43863;52.256;21.048;2022-08-01T04:15:31;100214.47;;;16.17;82.06
58070;BME280;43863;52.256;21.048;2022-08-01T04:17:59;100218.91;;;16.29;81.85
58070;BME280;43863;52.256;21.048;2022-08-01T04:20:28;100218.97;;;16.23;81.75
58070;BME280;43863;52.256;21.048;2022-08-01T04:22:56;100223.84;;;16.32;81.51
58070;BME280;43863;52.256;21.048;2022-08-01T04:25:33;100219.47;;;16.38;81.34
58070;BME280;43863;52.256;21.048;2022-08-01T04:28:03;100225.44;;;16.40;81.03
58070;BME280;43863;52.256;21.048;2022-08-01T04:31:01;100218.78;;;16.49;81.13
58070;BME280;43863;52.256;21.048;2022-08-01T04:33:40;100225.69;;;16.64;80.72
58070;BME280;43863;52.256;21.048;2022-08-01T04:36:13;100229.41;;;16.63;80.24
58070;BME280;43863;52.256;21.048;2022-08-01T04:38:45;100228.69;;;16.74;80.34
58070;BME280;43863;52.256;21.048;2022-08-01T04:41:18;100230.03;;;16.90;80.03
58070;BME280;43863;52.256;21.048;2022-08-01T04:43:46;100231.44;;;16.92;79.46
58070;BME280;43863;52.256;21.048;2022-08-01T04:46:15;100234.84;;;16.81;79.46
58070;BME280;43863;52.256;21.048;2022-08-01T04:49:10;100237.75;;;16.79;79.47
58070;BME280;43863;52.256;21.048;2022-08-01T04:51:56;100221.94;;;16.65;79.08
58070;BME280;43863;52.256;21.048;2022-08-01T04:54:28;100217.03;;;16.61;79.40
58070;BME280;43863;52.256;21.048;2022-08-01T04:56:57;100227.53;;;16.63;79.28
58070;BME280;43863;52.256;21.048;2022-08-01T04:59:28;100235.16;;;16.66;79.29
58070;BME280;43863;52.256;21.048;2022-08-01T05:02:15;100235.50;;;16.76;78.89
58070;BME280;43863;52.256;21.048;2022-08-01T05:05:10;100234.56;;;16.89;78.80
58070;BME280;43863;52.256;21.048;2022-08-01T05:07:40;100238.16;;;17.01;78.65
58070;BME280;43863;52.256;21.048;2022-08-01T05:10:12;100237.81;;;16.98;78.14
58070;BME280;43863;52.256;21.048;2022-08-01T05:12:40;100235.94;;;16.98;77.97
58070;BME280;43863;52.256;21.048;2022-08-01T05:15:08;100241.56;;;16.90;77.90
58070;BME280;43863;52.256;21.048;2022-08-01T05:17:42;100243.34;;;16.78;78.11
58070;BME280;43863;52.256;21.048;2022-08-01T05:20:11;100249.22;;;16.61;78.51
58070;BME280;43863;52.256;21.048;2022-08-01T05:22:39;100251.13;;;16.54;78.65
58070;BME280;43863;52.256;21.048;2022-08-01T05:25:07;100249.16;;;16.43;78.93
58070;BME280;43863;52.256;21.048;2022-08-01T05:27:35;100251.25;;;16.34;79.29
58070;BME280;43863;52.256;21.048;2022-08-01T05:30:08;100252.25;;;16.40;79.44
58070;BME280;43863;52.256;21.048;2022-08-01T05:32:36;100252.44;;;16.45;79.53
58070;BME280;43863;52.256;21.048;2022-08-01T05:35:05;100258.13;;;16.55;79.36
58070;BME280;43863;52.256;21.048;2022-08-01T05:37:33;100253.25;;;16.71;79.24
58070;BME280;43863;52.256;21.048;2022-08-01T05:40:09;100261.84;;;16.86;79.12
58070;BME280;43863;52.256;21.048;2022-08-01T05:43:03;100266.72;;;17.14;78.68
58070;BME280;43863;52.256;21.048;2022-08-01T05:45:36;100268.41;;;17.34;78.32
58070;BME280;43863;52.256;21.048;2022-08-01T05:48:07;100260.63;;;17.44;77.62
58070;BME280;43863;52.256;21.048;2022-08-01T05:50:35;100261.69;;;17.61;77.80
58070;BME280;43863;52.256;21.048;2022-08-01T05:53:04;100276.25;;;17.90;77.28
58070;BME280;43863;52.256;21.048;2022-08-01T05:55:32;100268.13;;;18.09;76.39
58070;BME280;43863;52.256;21.048;2022-08-01T05:58:01;100262.03;;;18.32;75.79
58070;BME280;43863;52.256;21.048;2022-08-01T06:00:29;100269.53;;;18.41;75.26
58070;BME280;43863;52.256;21.048;2022-08-01T06:02:57;100272.38;;;18.58;74.27
58070;BME280;43863;52.256;21.048;2022-08-01T06:05:25;100275.56;;;18.67;73.82
58070;BME280;43863;52.256;21.048;2022-08-01T06:07:53;100273.59;;;18.86;72.98
58070;BME280;43863;52.256;21.048;2022-08-01T06:10:21;100272.13;;;19.02;72.53
58070;BME280;43863;52.256;21.048;2022-08-01T06:12:49;100267.75;;;19.13;71.48
58070;BME280;43863;52.256;21.048;2022-08-01T06:15:17;100272.22;;;19.19;71.03
58070;BME280;43863;52.256;21.048;2022-08-01T06:17:46;100275.72;;;19.19;70.58
58070;BME280;43863;52.256;21.048;2022-08-01T06:20:14;100276.19;;;19.28;71.20
58070;BME280;43863;52.256;21.048;2022-08-01T06:22:42;100272.06;;;19.37;70.22
58070;BME280;43863;52.256;21.048;2022-08-01T06:25:19;100273.84;;;19.43;70.02
58070;BME280;43863;52.256;21.048;2022-08-01T06:27:48;100276.13;;;19.63;69.37
58070;BME280;43863;52.256;21.048;2022-08-01T06:30:20;100270.22;;;19.90;68.78
58070;BME280;43863;52.256;21.048;2022-08-01T06:32:48;100278.97;;;20.09;68.44
58070;BME280;43863;52.256;21.048;2022-08-01T06:35:16;100271.81;;;20.31;68.02
58070;BME280;43863;52.256;21.048;2022-08-01T06:37:46;100283.44;;;20.49;67.46
58070;BME280;43863;52.256;21.048;2022-08-01T06:40:14;100274.66;;;20.53;66.81
58070;BME280;43863;52.256;21.048;2022-08-01T06:42:45;100283.72;;;20.64;66.23
58070;BME280;43863;52.256;21.048;2022-08-01T06:45:14;100286.44;;;20.81;65.71
58070;BME280;43863;52.256;21.048;2022-08-01T06:47:44;100274.31;;;20.66;64.57
58070;BME280;43863;52.256;21.048;2022-08-01T06:50:17;100276.97;;;20.50;64.80
58070;BME280;43863;52.256;21.048;2022-08-01T06:52:45;100281.09;;;20.52;65.30
58070;BME280;43863;52.256;21.048;2022-08-01T06:55:13;100272.69;;;20.65;65.31
58070;BME280;43863;52.256;21.048;2022-08-01T06:57:52;100280.22;;;20.80;64.13
58070;BME280;43863;52.256;21.048;2022-08-01T07:00:21;100275.16;;;20.84;63.99
58070;BME280;43863;52.256;21.048;2022-08-01T07:02:57;100278.75;;;20.89;63.65
58070;BME280;43863;52.256;21.048;2022-08-01T07:05:52;100279.97;;;20.82;62.75
58070;BME280;43863;52.256;21.048;2022-08-01T07:08:20;100272.03;;;20.58;63.15
58070;BME280;43863;52.256;21.048;2022-08-01T07:10:49;100271.78;;;20.60;63.51
58070;BME280;43863;52.256;21.048;2022-08-01T07:13:17;100271.31;;;20.63;63.47
58070;BME280;43863;52.256;21.048;2022-08-01T07:15:49;100274.81;;;20.80;63.92
58070;BME280;43863;52.256;21.048;2022-08-01T07:18:17;100274.06;;;20.85;63.27
58070;BME280;43863;52.256;21.048;2022-08-01T07:20:45;100277.44;;;20.92;63.37
58070;BME280;43863;52.256;21.048;2022-08-01T07:23:19;100273.56;;;21.05;63.41
58070;BME280;43863;52.256;21.048;2022-08-01T07:26:21;100274.28;;;21.17;61.75
58070;BME280;43863;52.256;21.048;2022-08-01T07:28:49;100276.44;;;21.15;61.65
58070;BME280;43863;52.256;21.048;2022-08-01T07:31:20;100273.88;;;21.42;61.59
58070;BME280;43863;52.256;21.048;2022-08-01T07:33:50;100273.44;;;21.72;61.87
58070;BME280;43863;52.256;21.048;2022-08-01T07:36:18;100269.88;;;21.94;61.13
58070;BME280;43863;52.256;21.048;2022-08-01T07:38:46;100265.69;;;21.81;59.41
58070;BME280;43863;52.256;21.048;2022-08-01T07:41:16;100264.63;;;21.82;59.86
58070;BME280;43863;52.256;21.048;2022-08-01T07:43:44;100266.22;;;22.05;60.10
58070;BME280;43863;52.256;21.048;2022-08-01T07:46:49;100264.56;;;22.26;60.04
58070;BME280;43863;52.256;21.048;2022-08-01T07:49:17;100269.59;;;22.44;59.15
58070;BME280;43863;52.256;21.048;2022-08-01T07:51:45;100268.28;;;22.47;58.50
58070;BME280;43863;52.256;21.048;2022-08-01T07:54:32;100259.88;;;22.76;58.40
58070;BME280;43863;52.256;21.048;2022-08-01T07:57:03;100264.66;;;22.63;57.07
58070;BME280;43863;52.256;21.048;2022-08-01T07:59:31;100262.56;;;22.43;57.35
58070;BME280;43863;52.256;21.048;2022-08-01T08:02:00;100260.28;;;22.30;57.92
58070;BME280;43863;52.256;21.048;2022-08-01T08:04:29;100261.41;;;22.34;57.63
58070;BME280;43863;52.256;21.048;2022-08-01T08:06:58;100258.53;;;22.46;57.03
58070;BME280;43863;52.256;21.048;2022-08-01T08:09:51;100261.81;;;22.48;56.04
58070;BME280;43863;52.256;21.048;2022-08-01T08:12:44;100260.91;;;22.37;56.45
58070;BME280;43863;52.256;21.048;2022-08-01T08:15:39;100265.53;;;22.42;56.50
58070;BME280;43863;52.256;21.048;2022-08-01T08:18:07;100267.81;;;22.55;56.74
58070;BME280;43863;52.256;21.048;2022-08-01T08:20:36;100265.63;;;22.84;56.30
58070;BME280;43863;52.256;21.048;2022-08-01T08:23:07;100269.59;;;23.09;56.09
58070;BME280;43863;52.256;21.048;2022-08-01T08:26:36;100272.25;;;23.46;55.34
58070;BME280;43863;52.256;21.048;2022-08-01T08:29:07;100270.97;;;23.64;55.47
58070;BME280;43863;52.256;21.048;2022-08-01T08:31:35;100267.25;;;23.75;54.08
58070;BME280;43863;52.256;21.048;2022-08-01T08:34:19;100262.38;;;23.77;53.33
58070;BME280;43863;52.256;21.048;2022-08-01T08:36:49;100271.25;;;23.68;53.57
58070;BME280;43863;52.256;21.048;2022-08-01T08:39:18;100270.78;;;23.81;53.70
58070;BME280;43863;52.256;21.048;2022-08-01T08:41:47;100267.59;;;23.94;52.73
58070;BME280;43863;52.256;21.048;2022-08-01T08:44:42;100284.13;;;23.93;52.39
58070;BME280;43863;52.256;21.048;2022-08-01T08:47:13;100281.94;;;23.84;51.70
58070;BME280;43863;52.256;21.048;2022-08-01T08:49:50;100281.34;;;23.72;50.89
58070;BME280;43863;52.256;21.048;2022-08-01T08:52:23;100284.78;;;23.62;50.65
58070;BME280;43863;52.256;21.048;2022-08-01T08:54:55;100283.19;;;23.67;50.88
58070;BME280;43863;52.256;21.048;2022-08-01T08:57:49;100282.97;;;23.73;50.77
58070;BME280;43863;52.256;21.048;2022-08-01T09:00:18;100284.34;;;23.76;51.26
58070;BME280;43863;52.256;21.048;2022-08-01T09:02:47;100291.13;;;23.78;51.35
58070;BME280;43863;52.256;21.048;2022-08-01T09:07:46;100293.59;;;23.85;50.64
58070;BME280;43863;52.256;21.048;2022-08-01T09:10:14;100290.59;;;23.76;49.53
58070;BME280;43863;52.256;21.048;2022-08-01T09:13:08;100300.09;;;23.79;49.95
58070;BME280;43863;52.256;21.048;2022-08-01T09:16:05;100298.09;;;23.69;50.30
58070;BME280;43863;52.256;21.048;2022-08-01T09:18:37;100300.09;;;23.79;50.62
58070;BME280;43863;52.256;21.048;2022-08-01T09:21:36;100296.88;;;23.92;50.78
58070;BME280;43863;52.256;21.048;2022-08-01T09:24:15;100298.25;;;23.95;50.08
58070;BME280;43863;52.256;21.048;2022-08-01T09:26:57;100298.22;;;23.90;50.33
58070;BME280;43863;52.256;21.048;2022-08-01T09:29:28;100303.69;;;24.00;50.14
58070;BME280;43863;52.256;21.048;2022-08-01T09:32:05;100309.69;;;24.02;49.32
58070;BME280;43863;52.256;21.048;2022-08-01T09:34:34;100303.38;;;23.91;48.51
58070;BME280;43863;52.256;21.048;2022-08-01T09:37:03;100302.84;;;23.84;49.17
58070;BME280;43863;52.256;21.048;2022-08-01T09:39:36;100308.56;;;23.98;49.77
58070;BME280;43863;52.256;21.048;2022-08-01T09:42:20;100308.28;;;24.04;49.23
58070;BME280;43863;52.256;21.048;2022-08-01T09:44:56;100306.16;;;24.12;49.18
58070;BME280;43863;52.256;21.048;2022-08-01T09:47:37;100298.59;;;24.24;48.39
58070;BME280;43863;52.256;21.048;2022-08-01T09:50:06;100297.25;;;24.32;48.67
58070;BME280;43863;52.256;21.048;2022-08-01T09:52:37;100297.78;;;24.34;48.34
58070;BME280;43863;52.256;21.048;2022-08-01T09:55:08;100305.94;;;24.39;48.38
58070;BME280;43863;52.256;21.048;2022-08-01T09:57:36;100304.34;;;24.48;48.76
58070;BME280;43863;52.256;21.048;2022-08-01T10:00:05;100302.47;;;24.59;49.19
58070;BME280;43863;52.256;21.048;2022-08-01T10:03:22;100301.38;;;24.44;48.15
58070;BME280;43863;52.256;21.048;2022-08-01T10:05:52;100298.03;;;24.22;47.49
58070;BME280;43863;52.256;21.048;2022-08-01T10:08:21;100306.16;;;24.12;47.82
58070;BME280;43863;52.256;21.048;2022-08-01T10:11:10;100294.19;;;24.02;47.79
58070;BME280;43863;52.256;21.048;2022-08-01T10:13:39;100292.59;;;24.12;48.57
58070;BME280;43863;52.256;21.048;2022-08-01T10:16:08;100293.72;;;24.26;47.96
58070;BME280;43863;52.256;21.048;2022-08-01T10:18:38;100288.22;;;24.11;48.09
58070;BME280;43863;52.256;21.048;2022-08-01T10:21:11;100284.16;;;24.03;48.38
58070;BME280;43863;52.256;21.048;2022-08-01T10:23:40;100288.28;;;24.21;48.69
58070;BME280;43863;52.256;21.048;2022-08-01T10:26:10;100289.91;;;24.37;49.01
58070;BME280;43863;52.256;21.048;2022-08-01T10:28:40;100292.69;;;24.63;49.57
58070;BME280;43863;52.256;21.048;2022-08-01T10:31:08;100293.22;;;24.75;48.77
58070;BME280;43863;52.256;21.048;2022-08-01T10:33:40;100300.31;;;24.76;48.40
58070;BME280;43863;52.256;21.048;2022-08-01T10:36:20;100290.25;;;24.77;47.68
58070;BME280;43863;52.256;21.048;2022-08-01T10:38:54;100291.88;;;24.78;46.75
58070;BME280;43863;52.256;21.048;2022-08-01T10:41:24;100294.34;;;24.79;47.21
58070;BME280;43863;52.256;21.048;2022-08-01T10:43:54;100290.22;;;24.87;46.12
58070;BME280;43863;52.256;21.048;2022-08-01T10:46:24;100285.91;;;24.86;45.63
58070;BME280;43863;52.256;21.048;2022-08-01T10:49:23;100290.22;;;24.87;46.02
58070;BME280;43863;52.256;21.048;2022-08-01T10:51:53;100279.06;;;24.93;46.32
58070;BME280;43863;52.256;21.048;2022-08-01T10:54:24;100292.38;;;25.05;46.02
58070;BME280;43863;52.256;21.048;2022-08-01T10:56:53;100289.41;;;25.02;46.16
58070;BME280;43863;52.256;21.048;2022-08-01T10:59:28;100286.94;;;25.05;45.75
58070;BME280;43863;52.256;21.048;2022-08-01T11:02:29;100274.19;;;24.90;45.52
58070;BME280;43863;52.256;21.048;2022-08-01T11:05:12;100281.28;;;24.76;45.57
58070;BME280;43863;52.256;21.048;2022-08-01T11:07:51;100276.94;;;24.75;46.16
58070;BME280;43863;52.256;21.048;2022-08-01T11:12:57;100272.03;;;25.03;46.97
58070;BME280;43863;52.256;21.048;2022-08-01T11:15:26;100272.53;;;25.10;46.65
58070;BME280;43863;52.256;21.048;2022-08-01T11:18:01;100271.75;;;25.04;46.51
58070;BME280;43863;52.256;21.048;2022-08-01T11:20:35;100278.28;;;24.98;47.74
58070;BME280;43863;52.256;21.048;2022-08-01T11:28:34;100282.34;;;25.21;45.84
58070;BME280;43863;52.256;21.048;2022-08-01T11:41:42;100276.53;;;25.53;44.28
58070;BME280;43863;52.256;21.048;2022-08-01T11:44:17;100272.66;;;25.70;44.48
58070;BME280;43863;52.256;21.048;2022-08-01T11:46:54;100280.84;;;25.64;45.03
58070;BME280;43863;52.256;21.048;2022-08-01T11:50:01;100281.06;;;25.73;45.30
58070;BME280;43863;52.256;21.048;2022-08-01T11:52:30;100278.03;;;25.90;46.24
58070;BME280;43863;52.256;21.048;2022-08-01T11:55:09;100279.97;;;25.79;44.06
58070;BME280;43863;52.256;21.048;2022-08-01T11:57:38;100275.19;;;25.56;45.21
58070;BME280;43863;52.256;21.048;2022-08-01T12:00:15;100272.72;;;25.59;44.88
58070;BME280;43863;52.256;21.048;2022-08-01T12:02:46;100273.78;;;25.58;45.14
58070;BME280;43863;52.256;21.048;2022-08-01T12:05:16;100272.13;;;25.68;45.10
58070;BME280;43863;52.256;21.048;2022-08-01T12:07:54;100279.13;;;25.79;44.97
58070;BME280;43863;52.256;21.048;2022-08-01T12:10:29;100280.25;;;25.78;44.87
58070;BME280;43863;52.256;21.048;2022-08-01T12:13:26;100267.19;;;25.80;44.93
58070;BME280;43863;52.256;21.048;2022-08-01T12:15:54;100271.81;;;25.79;44.51
58070;BME280;43863;52.256;21.048;2022-08-01T12:18:23;100272.91;;;25.73;44.39
58070;BME280;43863;52.256;21.048;2022-08-01T12:20:51;100276.47;;;25.74;44.83
58070;BME280;43863;52.256;21.048;2022-08-01T12:23:29;100273.44;;;25.80;44.80
58070;BME280;43863;52.256;21.048;2022-08-01T12:25:57;100268.81;;;25.76;44.28
58070;BME280;43863;52.256;21.048;2022-08-01T12:28:26;100270.75;;;25.70;44.84
58070;BME280;43863;52.256;21.048;2022-08-01T12:30:55;100266.13;;;25.71;44.63
58070;BME280;43863;52.256;21.048;2022-08-01T12:33:23;100272.91;;;25.73;44.87
58070;BME280;43863;52.256;21.048;2022-08-01T12:35:52;100268.81;;;25.76;45.09
58070;BME280;43863;52.256;21.048;2022-08-01T12:38:21;100270.44;;;25.82;44.72
58070;BME280;43863;52.256;21.048;2022-08-01T12:40:50;100261.19;;;25.78;44.91
58070;BME280;43863;52.256;21.048;2022-08-01T12:43:22;100270.19;;;25.83;45.00
58070;BME280;43863;52.256;21.048;2022-08-01T12:45:58;100266.38;;;25.74;45.18
58070;BME280;43863;52.256;21.048;2022-08-01T12:48:30;100266.97;;;25.66;45.20
58070;BME280;43863;52.256;21.048;2022-08-01T12:50:58;100270.00;;;25.59;45.30
58070;BME280;43863;52.256;21.048;2022-08-01T12:53:33;100265.91;;;25.57;45.01
58070;BME280;43863;52.256;21.048;2022-08-01T12:56:09;100260.22;;;25.53;45.16
58070;BME280;43863;52.256;21.048;2022-08-01T12:58:40;100261.28;;;25.52;45.32
58070;BME280;43863;52.256;21.048;2022-08-01T13:01:10;100266.50;;;25.43;45.77
58070;BME280;43863;52.256;21.048;2022-08-01T13:03:39;100258.06;;;25.45;45.64
58070;BME280;43863;52.256;21.048;2022-08-01T13:06:14;100260.78;;;25.45;45.81
58070;BME280;43863;52.256;21.048;2022-08-01T13:08:44;100252.03;;;25.58;46.10
58070;BME280;43863;52.256;21.048;2022-08-01T13:11:14;100250.03;;;25.79;45.94
58070;BME280;43863;52.256;21.048;2022-08-01T13:13:51;100248.63;;;25.92;45.99
58070;BME280;43863;52.256;21.048;2022-08-01T13:16:29;100247.78;;;25.97;45.67
58070;BME280;43863;52.256;21.048;2022-08-01T13:19:17;100249.44;;;25.93;45.67
58070;BME280;43863;52.256;21.048;2022-08-01T13:22:01;100254.56;;;25.99;45.24
58070;BME280;43863;52.256;21.048;2022-08-01T13:24:29;100253.16;;;26.07;45.67
58070;BME280;43863;52.256;21.048;2022-08-01T13:27:00;100252.31;;;26.12;45.08
58070;BME280;43863;52.256;21.048;2022-08-01T13:32:21;100249.81;;;26.20;44.24
58070;BME280;43863;52.256;21.048;2022-08-01T13:35:07;100240.84;;;26.15;44.68
58070;BME280;43863;52.256;21.048;2022-08-01T13:37:36;100250.88;;;26.24;44.85
58070;BME280;43863;52.256;21.048;2022-08-01T13:40:07;100258.25;;;26.24;44.81
58070;BME280;43863;52.256;21.048;2022-08-01T13:42:36;100253.06;;;26.22;44.71
58070;BME280;43863;52.256;21.048;2022-08-01T13:45:05;100253.38;;;26.21;44.62
58070;BME280;43863;52.256;21.048;2022-08-01T13:47:43;100253.53;;;26.29;45.00
58070;BME280;43863;52.256;21.048;2022-08-01T13:50:31;100246.44;;;26.39;44.74